createdAt,value
2023-04-13T00:00:35.317Z,1.17
2023-04-13T00:03:04.487Z,2.50
2023-04-13T00:05:34.305Z,1.30
2023-04-13T00:08:04.632Z,2.07
2023-04-13T00:10:36.271Z,3.40
2023-04-13T00:13:06.441Z,1.97
2023-04-13T00:15:36.780Z,1.50
2023-04-13T00:18:06.788Z,2.83
2023-04-13T00:20:35.086Z,1.60
2023-04-13T00:23:04.272Z,1.70
2023-04-13T00:25:33.045Z,2.60
2023-04-13T00:28:03.565Z,3.03
2023-04-13T00:30:33.757Z,2.67
2023-04-13T00:33:06.007Z,2.53
2023-04-13T00:35:34.940Z,2.33
2023-04-13T00:38:04.570Z,3.07
2023-04-13T00:40:33.195Z,4.33
2023-04-13T00:43:02.527Z,1.97
2023-04-13T00:45:31.173Z,2.77
2023-04-13T00:48:00.953Z,3.27
2023-04-13T00:50:29.228Z,1.80
2023-04-13T00:52:58.308Z,2.33
2023-04-13T00:55:27.746Z,2.13
2023-04-13T00:57:57.940Z,3.37
2023-04-13T01:00:27.067Z,2.47
2023-04-13T01:02:56.749Z,2.90
2023-04-13T01:05:29.679Z,2.47
2023-04-13T01:08:09.754Z,2.40
2023-04-13T01:10:44.271Z,2.80
2023-04-13T01:13:20.660Z,3.20
2023-04-13T01:16:03.934Z,3.63
2023-04-13T01:18:40.209Z,3.73
2023-04-13T01:21:14.416Z,2.77
2023-04-13T01:23:53.073Z,3.27
2023-04-13T01:26:22.721Z,3.50
2023-04-13T01:28:53.979Z,3.77
2023-04-13T01:31:22.640Z,2.43
2023-04-13T01:33:51.486Z,5.13
2023-04-13T01:36:21.003Z,4.03
2023-04-13T01:38:50.246Z,3.57
2023-04-13T01:41:19.874Z,3.70
2023-04-13T01:43:48.264Z,4.63
2023-04-13T01:46:23.703Z,3.43
2023-04-13T01:49:08.943Z,2.67
2023-04-13T01:51:58.678Z,4.40
2023-04-13T01:54:31.398Z,2.57
2023-04-13T01:57:02.265Z,4.50
2023-04-13T01:59:30.694Z,2.97
2023-04-13T02:02:00.432Z,3.03
2023-04-13T02:04:29.637Z,6.67
2023-04-13T02:06:58.874Z,3.03
2023-04-13T02:09:31.690Z,4.57
2023-04-13T02:11:59.978Z,2.23
2023-04-13T02:14:28.554Z,2.73
2023-04-13T02:16:57.024Z,2.30
2023-04-13T02:19:26.573Z,1.77
2023-04-13T02:21:55.547Z,3.60
2023-04-13T02:24:24.806Z,4.90
2023-04-13T02:26:53.046Z,3.50
2023-04-13T02:29:22.677Z,3.23
2023-04-13T02:31:53.514Z,3.67
2023-04-13T02:34:22.110Z,3.30
2023-04-13T02:36:51.798Z,3.87
2023-04-13T02:39:20.987Z,4.63
2023-04-13T02:41:50.313Z,2.57
2023-04-13T02:44:22.981Z,2.03
2023-04-13T02:46:56.649Z,2.43
2023-04-13T02:49:26.107Z,2.73
2023-04-13T02:52:01.710Z,2.07
2023-04-13T02:54:54.788Z,3.27
2023-04-13T02:57:29.729Z,3.73
2023-04-13T02:59:59.550Z,3.83
2023-04-13T03:02:37.825Z,3.27
2023-04-13T03:05:07.231Z,3.47
2023-04-13T03:07:37.813Z,3.13
2023-04-13T03:10:09.000Z,2.43
2023-04-13T03:12:37.662Z,4.17
2023-04-13T03:15:11.158Z,3.07
2023-04-13T03:17:41.555Z,3.77
2023-04-13T03:20:15.306Z,3.20
2023-04-13T03:22:53.677Z,3.50
2023-04-13T03:25:22.873Z,5.40
2023-04-13T03:27:51.716Z,3.80
2023-04-13T03:30:22.512Z,7.07
2023-04-13T03:32:56.734Z,4.40
2023-04-13T03:35:28.361Z,5.90
2023-04-13T03:38:00.547Z,4.83
2023-04-13T03:40:37.038Z,2.90
2023-04-13T03:43:05.497Z,3.90
2023-04-13T03:45:37.660Z,5.47
2023-04-13T03:48:11.010Z,2.93
2023-04-13T03:50:39.463Z,4.90
2023-04-13T03:53:10.769Z,4.23
2023-04-13T03:55:39.172Z,4.60
2023-04-13T03:58:09.032Z,6.20
2023-04-13T04:00:37.292Z,5.57
2023-04-13T04:03:19.186Z,6.83
2023-04-13T04:06:02.365Z,5.10
2023-04-13T04:08:33.337Z,4.33
2023-04-13T04:11:06.413Z,4.13
2023-04-13T04:13:35.584Z,3.10
2023-04-13T04:16:11.468Z,3.87
2023-04-13T04:18:45.602Z,4.00
2023-04-13T04:21:21.833Z,3.03
2023-04-13T04:23:52.992Z,3.63
2023-04-13T04:26:26.022Z,3.70
2023-04-13T04:29:02.315Z,4.20
2023-04-13T04:31:37.549Z,3.13
2023-04-13T04:34:11.685Z,2.87
2023-04-13T04:36:45.542Z,2.43
2023-04-13T04:39:21.996Z,5.53
2023-04-13T04:42:03.082Z,7.23
2023-04-13T04:44:32.693Z,4.97
2023-04-13T04:47:06.199Z,3.77
2023-04-13T04:49:41.572Z,3.13
2023-04-13T04:52:12.645Z,2.80
2023-04-13T04:54:43.349Z,3.83
2023-04-13T04:57:12.428Z,4.60
2023-04-13T04:59:41.843Z,3.33
2023-04-13T05:02:12.935Z,5.93
2023-04-13T05:04:42.029Z,3.97
2023-04-13T05:07:10.669Z,5.53
2023-04-13T05:09:42.213Z,3.93
2023-04-13T05:12:12.092Z,4.70
2023-04-13T05:14:43.098Z,14.73
2023-04-13T05:17:18.321Z,7.30
2023-04-13T05:19:47.014Z,6.67
2023-04-13T05:22:37.808Z,5.33
2023-04-13T05:25:09.556Z,6.63
2023-04-13T05:27:39.244Z,3.80
2023-04-13T05:30:09.668Z,6.17
2023-04-13T05:32:40.552Z,3.60
2023-04-13T05:35:11.564Z,5.43
2023-04-13T05:37:40.404Z,6.27
2023-04-13T05:40:15.120Z,5.13
2023-04-13T05:42:45.066Z,2.53
2023-04-13T05:45:17.211Z,6.40
2023-04-13T05:48:00.847Z,6.83
2023-04-13T05:50:29.543Z,3.67
2023-04-13T05:52:58.284Z,3.37
2023-04-13T05:55:29.816Z,3.17
2023-04-13T05:58:04.820Z,4.93
2023-04-13T06:00:34.548Z,5.60
2023-04-13T06:03:08.827Z,7.83
2023-04-13T06:05:37.471Z,5.57
2023-04-13T06:08:06.081Z,4.70
2023-04-13T06:10:34.261Z,6.17
2023-04-13T06:13:03.818Z,5.70
2023-04-13T06:15:32.388Z,6.73
2023-04-13T06:18:00.727Z,5.97
2023-04-13T06:20:29.177Z,6.30
2023-04-13T06:22:58.203Z,6.87
2023-04-13T06:25:27.184Z,6.30
2023-04-13T06:27:55.543Z,9.37
2023-04-13T06:30:25.625Z,5.97
2023-04-13T06:32:56.990Z,9.17
2023-04-13T06:35:27.654Z,6.87
2023-04-13T06:37:55.966Z,5.60
2023-04-13T06:40:33.435Z,8.30
2023-04-13T06:43:13.433Z,4.37
2023-04-13T06:45:59.767Z,6.73
2023-04-13T06:48:31.162Z,8.10
2023-04-13T06:51:01.942Z,5.00
2023-04-13T06:53:33.308Z,6.83
2023-04-13T06:56:01.794Z,6.17
2023-04-13T06:58:31.319Z,11.40
2023-04-13T07:01:01.190Z,8.77
2023-04-13T07:03:32.775Z,6.57
2023-04-13T07:06:01.517Z,5.83
2023-04-13T07:08:29.951Z,11.13
2023-04-13T07:10:58.732Z,6.20
2023-04-13T07:13:34.645Z,5.67
2023-04-13T07:16:05.414Z,9.77
2023-04-13T07:18:37.208Z,9.13
2023-04-13T07:21:06.165Z,4.73
2023-04-13T07:23:46.053Z,7.00
2023-04-13T07:26:15.889Z,6.57
2023-04-13T07:28:44.437Z,7.50
2023-04-13T07:31:16.221Z,5.80
2023-04-13T07:33:48.236Z,6.03
2023-04-13T07:36:20.469Z,5.17
2023-04-13T07:38:52.543Z,8.17
2023-04-13T07:41:22.834Z,5.13
2023-04-13T07:43:54.979Z,7.47
2023-04-13T07:46:27.321Z,6.20
2023-04-13T07:48:57.322Z,8.83
2023-04-13T07:51:32.299Z,7.23
2023-04-13T07:54:01.048Z,5.13
2023-04-13T07:56:31.806Z,6.50
2023-04-13T07:59:02.157Z,6.60
2023-04-13T08:01:33.010Z,7.60
2023-04-13T08:04:03.830Z,5.73
2023-04-13T08:06:33.362Z,7.27
2023-04-13T08:09:02.829Z,7.57
2023-04-13T08:11:32.713Z,7.73
2023-04-13T08:14:07.184Z,5.60
2023-04-13T08:16:37.099Z,5.87
2023-04-13T08:19:08.819Z,7.60
2023-04-13T08:21:42.713Z,7.00
2023-04-13T08:24:11.487Z,7.13
2023-04-13T08:26:41.108Z,6.43
2023-04-13T08:29:10.457Z,7.93
2023-04-13T08:31:40.783Z,7.00
2023-04-13T08:34:12.820Z,6.10
2023-04-13T08:36:41.488Z,4.43
2023-04-13T08:39:12.524Z,6.93
2023-04-13T08:41:47.068Z,6.13
2023-04-13T08:44:17.599Z,7.10
2023-04-13T08:46:52.553Z,5.43
2023-04-13T08:49:28.291Z,8.13
2023-04-13T08:52:19.604Z,6.67
2023-04-13T08:54:55.169Z,8.77
2023-04-13T08:57:27.844Z,9.77
2023-04-13T08:59:58.180Z,8.57
2023-04-13T09:02:33.895Z,8.30
2023-04-13T09:05:16.706Z,6.20
2023-04-13T09:07:53.894Z,7.67
2023-04-13T09:10:24.037Z,9.93
2023-04-13T09:12:52.661Z,6.77
2023-04-13T09:15:21.181Z,8.50
2023-04-13T09:18:07.920Z,9.77
2023-04-13T09:20:39.764Z,8.07
2023-04-13T09:23:17.842Z,7.50
2023-04-13T09:25:47.158Z,9.97
2023-04-13T09:28:19.684Z,7.33
2023-04-13T09:30:48.545Z,10.03
2023-04-13T09:33:18.812Z,9.40
2023-04-13T09:35:47.159Z,8.67
2023-04-13T09:38:17.206Z,5.10
2023-04-13T09:40:54.466Z,7.73
2023-04-13T09:43:23.432Z,8.13
2023-04-13T09:45:52.417Z,7.77
2023-04-13T09:48:23.573Z,7.33
2023-04-13T09:51:01.820Z,8.80
2023-04-13T09:53:42.605Z,5.03
2023-04-13T09:56:11.150Z,14.17
2023-04-13T09:58:44.734Z,8.97
2023-04-13T10:01:13.360Z,9.07
2023-04-13T10:03:44.551Z,5.87
2023-04-13T10:06:12.991Z,7.63
2023-04-13T10:08:42.000Z,10.33
2023-04-13T10:11:14.621Z,10.67
2023-04-13T10:13:49.340Z,9.60
2023-04-13T10:16:32.722Z,9.37
2023-04-13T10:19:06.446Z,10.73
2023-04-13T10:21:39.516Z,7.93
2023-04-13T10:24:12.168Z,7.73
2023-04-13T10:26:42.098Z,6.37
2023-04-13T10:29:11.701Z,8.57
2023-04-13T10:31:41.423Z,6.07
2023-04-13T10:34:11.717Z,3.03
2023-04-13T10:36:41.870Z,6.03
2023-04-13T10:39:10.660Z,3.97
2023-04-13T10:41:39.336Z,13.50
2023-04-13T10:44:08.991Z,7.00
2023-04-13T10:46:37.631Z,6.80
2023-04-13T10:49:06.792Z,4.63
2023-04-13T10:51:44.044Z,7.53
2023-04-13T10:54:14.273Z,4.10
2023-04-13T10:56:42.528Z,3.93
2023-04-13T10:59:10.785Z,3.70
2023-04-13T11:01:41.272Z,2.07
2023-04-13T11:04:14.058Z,2.27
2023-04-13T11:06:46.928Z,3.07
2023-04-13T11:09:17.227Z,5.07
2023-04-13T11:11:52.686Z,4.40
2023-04-13T11:14:24.453Z,3.70
2023-04-13T11:16:58.478Z,2.97
2023-04-13T11:19:26.947Z,26.93
2023-04-13T11:21:58.135Z,7.17
2023-04-13T11:24:28.285Z,2.33
2023-04-13T11:26:57.711Z,4.20
2023-04-13T11:29:25.969Z,3.30
2023-04-13T11:31:54.374Z,5.50
2023-04-13T11:34:28.965Z,5.17
2023-04-13T11:37:05.844Z,4.27
2023-04-13T11:39:36.410Z,3.57
2023-04-13T11:42:08.136Z,3.53
2023-04-13T11:44:37.292Z,2.83
2023-04-13T11:47:06.558Z,2.87
2023-04-13T11:49:35.144Z,4.27
2023-04-13T11:52:05.152Z,2.23
2023-04-13T11:54:33.810Z,4.70
2023-04-13T11:57:02.483Z,4.10
2023-04-13T11:59:30.807Z,3.60
2023-04-13T12:02:03.835Z,2.73
2023-04-13T12:04:41.072Z,4.70
2023-04-13T12:07:15.173Z,3.80
2023-04-13T12:09:56.058Z,4.33
2023-04-13T12:20:04.777Z,3.70
2023-04-13T12:22:51.719Z,4.17
2023-04-13T12:25:25.800Z,3.67
2023-04-13T12:27:54.978Z,4.77
2023-04-13T12:30:24.540Z,4.43
2023-04-13T12:32:53.794Z,3.47
2023-04-13T12:35:22.372Z,4.00
2023-04-13T12:37:52.597Z,2.60
2023-04-13T12:40:21.344Z,3.00
2023-04-13T12:42:50.577Z,3.20
2023-04-13T12:45:18.963Z,11.68
2023-04-13T12:47:47.308Z,4.60
2023-04-13T12:50:15.740Z,3.83
2023-04-13T12:52:45.249Z,3.60
2023-04-13T12:55:15.091Z,3.55
2023-04-13T12:57:43.375Z,4.80
2023-04-13T13:00:12.852Z,5.20
2023-04-13T13:02:41.457Z,4.60
2023-04-13T13:05:10.676Z,4.13
2023-04-13T13:07:39.079Z,4.65
2023-04-13T13:10:25.818Z,4.22
2023-04-13T13:12:58.235Z,4.00
2023-04-13T13:15:26.604Z,3.53
2023-04-13T13:17:54.885Z,5.93
2023-04-13T13:20:23.432Z,4.43
2023-04-13T13:22:51.664Z,5.45
2023-04-13T13:25:20.039Z,5.10
2023-04-13T13:30:21.154Z,5.82
2023-04-13T13:32:49.443Z,6.70
2023-04-13T13:35:17.745Z,5.95
2023-04-13T13:37:46.045Z,4.32
2023-04-13T13:40:14.648Z,2.95
2023-04-13T13:42:51.804Z,5.15
2023-04-13T13:45:22.815Z,2.83
2023-04-13T13:47:55.149Z,3.95
2023-04-13T13:50:47.336Z,4.50
2023-04-13T13:53:16.045Z,4.15
2023-04-13T13:55:44.293Z,3.47
2023-04-13T13:58:12.716Z,4.72
2023-04-13T14:00:42.512Z,3.30
2023-04-13T14:03:11.833Z,3.58
2023-04-13T14:05:40.188Z,3.58
2023-04-13T14:08:08.891Z,5.45
2023-04-13T14:10:37.363Z,3.72
2023-04-13T14:13:06.268Z,4.53
2023-04-13T14:15:34.679Z,2.92
2023-04-13T14:18:11.056Z,6.43
2023-04-13T14:20:40.597Z,3.88
2023-04-13T14:23:10.106Z,3.40
2023-04-13T14:25:41.426Z,2.53
2023-04-13T14:28:11.684Z,3.15
2023-04-13T14:30:40.543Z,3.15
2023-04-13T14:33:10.510Z,4.50
2023-04-13T14:35:40.458Z,4.32
2023-04-13T14:38:09.790Z,3.97
2023-04-13T14:40:38.080Z,4.00
2023-04-13T14:43:06.772Z,3.85
2023-04-13T14:45:35.194Z,4.15
2023-04-13T14:48:03.705Z,3.47
2023-04-13T14:50:33.485Z,2.40
2023-04-13T14:53:04.559Z,2.88
2023-04-13T14:55:32.815Z,4.22
2023-04-13T14:58:01.689Z,3.88
2023-04-13T15:00:39.651Z,3.55
2023-04-13T15:03:09.004Z,4.18
2023-04-13T15:05:39.581Z,2.72
2023-04-13T15:08:08.933Z,3.40
2023-04-13T15:10:37.257Z,4.43
2023-04-13T15:13:07.224Z,3.70
2023-04-13T15:15:37.813Z,4.32
2023-04-13T15:18:06.524Z,3.95
2023-04-13T15:20:35.172Z,2.65
2023-04-13T15:23:04.856Z,3.70
2023-04-13T15:25:33.263Z,3.58
2023-04-13T15:28:01.676Z,4.63
2023-04-13T15:30:31.106Z,3.53
2023-04-13T15:33:02.208Z,4.43
2023-04-13T15:35:31.535Z,5.00
2023-04-13T15:38:02.365Z,4.25
2023-04-13T15:40:34.310Z,5.22
2023-04-13T15:43:02.893Z,5.90
2023-04-13T15:45:31.496Z,4.85
2023-04-13T15:48:00.074Z,5.32
2023-04-13T15:50:28.586Z,4.55
2023-04-13T15:52:57.153Z,4.07
2023-04-13T15:55:25.657Z,5.15
2023-04-13T15:57:57.183Z,4.38
2023-04-13T16:00:26.217Z,7.82
2023-04-13T16:02:54.786Z,7.97
2023-04-13T16:05:23.530Z,5.38
2023-04-13T16:07:52.718Z,6.95
2023-04-13T16:10:21.366Z,7.05
2023-04-13T16:12:50.086Z,5.22
2023-04-13T16:15:20.389Z,5.38
2023-04-13T16:17:48.731Z,5.20
2023-04-13T16:20:21.267Z,6.10
2023-04-13T16:22:53.243Z,9.65
2023-04-13T16:25:21.914Z,7.00
2023-04-13T16:27:50.641Z,6.38
2023-04-13T16:30:21.546Z,5.30
2023-04-13T16:32:51.067Z,6.05
2023-04-13T16:35:19.710Z,4.65
2023-04-13T16:37:48.135Z,4.43
2023-04-13T16:40:16.973Z,6.40
2023-04-13T16:42:46.119Z,6.88
2023-04-13T16:45:15.516Z,5.70
2023-04-13T16:47:45.538Z,8.35
2023-04-13T16:50:13.911Z,5.82
2023-04-13T16:52:42.375Z,5.28
2023-04-13T16:55:14.130Z,8.30
2023-04-13T16:57:43.773Z,6.28
2023-04-13T17:00:14.803Z,7.38
2023-04-13T17:02:45.455Z,13.27
2023-04-13T17:05:14.340Z,6.70
2023-04-13T17:07:44.299Z,4.63
2023-04-13T17:10:14.317Z,5.13
2023-04-13T17:12:42.917Z,4.40
2023-04-13T17:15:12.205Z,6.25
2023-04-13T17:17:40.859Z,5.55
2023-04-13T17:20:11.591Z,6.38
2023-04-13T17:22:40.076Z,6.25
2023-04-13T17:25:09.462Z,6.80
2023-04-13T17:27:37.956Z,5.27
2023-04-13T17:30:08.360Z,4.47
2023-04-13T17:32:36.830Z,6.70
2023-04-13T17:35:06.103Z,5.23
2023-04-13T17:37:35.861Z,5.93
2023-04-13T17:40:04.327Z,4.93
2023-04-13T17:42:32.822Z,4.27
2023-04-13T17:45:02.542Z,6.03
2023-04-13T17:47:31.946Z,5.50
2023-04-13T17:50:00.200Z,5.33
2023-04-13T17:52:28.566Z,5.87
2023-04-13T17:54:58.213Z,6.77
2023-04-13T17:57:26.567Z,4.70
2023-04-13T17:59:55.431Z,5.43
2023-04-13T18:02:23.927Z,7.17
2023-04-13T18:04:52.381Z,8.03
2023-04-13T18:07:21.833Z,10.07
2023-04-13T18:09:50.279Z,18.83
2023-04-13T18:12:20.044Z,7.10
2023-04-13T18:14:48.344Z,6.37
2023-04-13T18:17:16.818Z,5.03
2023-04-13T18:19:45.120Z,6.17
2023-04-13T18:22:15.103Z,5.57
2023-04-13T18:24:43.569Z,4.83
2023-04-13T18:27:12.338Z,6.87
2023-04-13T18:29:41.905Z,6.77
2023-04-13T18:32:10.236Z,7.90
2023-04-13T18:34:40.087Z,5.73
2023-04-13T18:37:08.308Z,6.83
2023-04-13T18:39:36.610Z,7.33
2023-04-13T18:42:05.050Z,7.60
2023-04-13T18:44:33.368Z,6.27
2023-04-13T18:47:03.239Z,6.17
2023-04-13T18:49:31.530Z,8.27
2023-04-13T18:51:59.738Z,7.80
2023-04-13T18:54:29.401Z,9.70
2023-04-13T18:56:57.774Z,8.50
2023-04-13T18:59:26.215Z,10.13
2023-04-13T19:01:54.686Z,9.47
2023-04-13T19:04:24.626Z,9.80
2023-04-13T19:06:52.935Z,7.47
2023-04-13T19:09:21.360Z,6.87
2023-04-13T19:11:53.450Z,9.77
2023-04-13T19:14:21.786Z,9.50
2023-04-13T19:16:52.830Z,9.67
2023-04-13T19:19:21.393Z,8.13
2023-04-13T19:21:53.571Z,9.80
2023-04-13T19:24:22.144Z,11.53
2023-04-13T19:26:50.721Z,10.37
2023-04-13T19:29:20.990Z,9.83
2023-04-13T19:31:49.960Z,11.13
2023-04-13T19:34:18.370Z,9.83
2023-04-13T19:36:46.740Z,12.30
2023-04-13T19:39:16.578Z,12.80
2023-04-13T19:41:45.105Z,9.87
2023-04-13T19:44:15.958Z,11.50
2023-04-13T19:46:44.614Z,13.10
2023-04-13T19:49:13.609Z,13.03
2023-04-13T19:51:42.274Z,15.13
2023-04-13T19:54:10.781Z,13.53
2023-04-13T19:56:40.811Z,13.80
2023-04-13T19:59:09.475Z,13.20
2023-04-13T20:01:37.919Z,12.83
2023-04-13T20:04:06.469Z,10.13
2023-04-13T20:06:35.960Z,12.73
2023-04-13T20:09:11.959Z,11.20
2023-04-13T20:11:42.158Z,12.37
2023-04-13T20:14:11.395Z,11.87
2023-04-13T20:16:39.866Z,11.43
2023-04-13T20:19:09.366Z,12.27
2023-04-13T20:21:38.574Z,19.00
2023-04-13T20:24:07.284Z,15.20
2023-04-13T20:26:36.157Z,22.60
2023-04-13T20:29:07.742Z,28.20
2023-04-13T20:31:36.942Z,20.47
2023-04-13T20:34:07.533Z,30.53
2023-04-13T20:36:35.824Z,28.37
2023-04-13T20:39:04.337Z,18.13
2023-04-13T20:41:33.743Z,16.47
2023-04-13T20:44:02.495Z,14.00
2023-04-13T20:46:35.716Z,14.07
2023-04-13T20:49:05.413Z,11.43
2023-04-13T20:51:34.088Z,10.17
2023-04-13T20:54:05.649Z,11.23
2023-04-13T20:56:34.354Z,8.33
2023-04-13T20:59:03.491Z,7.77
2023-04-13T21:01:33.036Z,7.90
2023-04-13T21:04:01.733Z,10.87
2023-04-13T21:06:30.197Z,9.17
2023-04-13T21:08:59.031Z,10.57
2023-04-13T21:11:28.615Z,12.47
2023-04-13T21:13:56.842Z,11.40
2023-04-13T21:16:26.563Z,12.77
2023-04-13T21:18:57.109Z,13.33
2023-04-13T21:21:27.724Z,13.03
2023-04-13T21:23:56.238Z,12.37
2023-04-13T21:26:24.515Z,12.30
2023-04-13T21:28:52.782Z,11.90
2023-04-13T21:31:21.195Z,10.67
2023-04-13T21:33:49.689Z,8.87
2023-04-13T21:38:50.761Z,9.47
2023-04-13T21:41:20.785Z,11.00
2023-04-13T21:43:49.040Z,12.37
2023-04-13T21:46:17.746Z,10.90
2023-04-13T21:48:46.161Z,8.37
2023-04-13T21:51:14.351Z,12.20
2023-04-13T21:53:43.962Z,10.50
2023-04-13T21:56:12.190Z,14.13
2023-04-13T21:58:41.995Z,13.90
2023-04-13T22:01:11.061Z,9.87
2023-04-13T22:03:41.228Z,12.43
2023-04-13T22:06:11.802Z,12.07
2023-04-13T22:08:41.072Z,11.20
2023-04-13T22:11:10.910Z,10.83
2023-04-13T22:13:40.984Z,11.93
2023-04-13T22:16:09.742Z,12.40
2023-04-13T22:18:38.127Z,12.53
2023-04-13T22:21:07.030Z,13.37
2023-04-13T22:23:35.415Z,14.57
2023-04-13T22:26:03.648Z,12.53
2023-04-13T22:28:33.331Z,9.90
2023-04-13T22:31:08.022Z,11.57
2023-04-13T22:33:37.082Z,10.70
2023-04-13T22:36:06.037Z,11.67
2023-04-13T22:38:34.525Z,11.90
2023-04-13T22:41:07.807Z,12.03
2023-04-13T22:43:38.149Z,10.27
2023-04-13T22:46:06.614Z,10.43
2023-04-13T22:48:35.087Z,12.53
2023-04-13T22:51:03.586Z,12.47
2023-04-13T22:53:32.146Z,9.87
2023-04-13T22:56:00.752Z,14.27
2023-04-13T22:58:29.613Z,12.53
2023-04-13T23:01:00.102Z,12.23
2023-04-13T23:03:28.531Z,14.57
2023-04-13T23:05:57.129Z,13.10
2023-04-13T23:08:25.366Z,12.57
2023-04-13T23:10:53.775Z,12.83
2023-04-13T23:13:22.101Z,15.83
2023-04-13T23:15:50.472Z,13.33
2023-04-13T23:18:20.226Z,14.03
2023-04-13T23:20:48.499Z,12.17
2023-04-13T23:23:16.696Z,11.57
2023-04-13T23:25:45.011Z,13.87
2023-04-13T23:28:13.202Z,18.40
2023-04-13T23:30:41.373Z,13.60
2023-04-13T23:33:09.624Z,13.80
2023-04-13T23:35:39.197Z,13.60
2023-04-13T23:38:07.393Z,14.13
2023-04-13T23:40:36.069Z,13.03
2023-04-13T23:43:04.254Z,13.43
2023-04-13T23:45:32.530Z,16.00
2023-04-13T23:48:00.887Z,13.13
2023-04-13T23:50:29.029Z,18.43
2023-04-13T23:52:59.765Z,13.97
2023-04-13T23:55:28.874Z,16.33
2023-04-13T23:57:57.021Z,17.30
